Site contains unofficial IBTrACS data. Visit the IBTrACS Website to access archived data.

1884 Tropical Storm NOT_NAMED (1884272N15318)


IBTrACS version v04r00. Visit IBTrACS website for data access.
Please direct all questions to the IBTrACS Q and A forum

Storm track - Intensity - Wind Radii - Intensity Data - Source Data - All data

Summary Information

Storm ID 1884272N15318
Start Sep 27 12Z
Max Intensity 50 kt (Sep 28 06Z)
End Oct 13 12Z
ATCF IDs
Track status Best track data.

Storm track plot

Map of storm track

Intensity plots

Map of storm track

Radial wind information

No radial wind information for this storm


Position and Intensity Table

BASIN ISO_TIME_________ NATURE LAT LON MLC WIND
degrees north degrees east kts
NA 1884-09-27 12:00:00 TS 15.00 -42.50 35
NA 15:00:00 TS 15.10 -42.59 37
NA 18:00:00 TS 15.20 -42.70 40
NA 21:00:00 TS 15.30 -42.85 42
NA 1884-09-28 00:00:00 TS 15.40 -43.00 45
NA 03:00:00 TS 15.50 -43.10 47
NA 06:00:00 TS 15.60 -43.20 50
NA 09:00:00 TS 15.71 -43.34 50
NA 12:00:00 TS 15.80 -43.50 50
NA 15:00:00 TS 15.87 -43.66 50
NA 18:00:00 TS 15.90 -43.80 50
NA 21:00:00 TS 15.90 -43.90 50
NA 1884-09-29 00:00:00 TS 15.90 -44.00 50
NA 03:00:00 TS 15.95 -44.15 50
NA 06:00:00 TS 16.00 -44.30 50
NA 09:00:00 TS 16.00 -44.40 50
NA 12:00:00 TS 16.00 -44.50 50
NA 15:00:00 TS 16.04 -44.63 50
NA 18:00:00 TS 16.10 -44.80 50
NA 21:00:00 TS 16.14 -44.99 50
NA 1884-09-30 00:00:00 TS 16.20 -45.20 50
NA 03:00:00 TS 16.30 -45.40 50
NA 06:00:00 TS 16.40 -45.60 50
NA 09:00:00 TS 16.45 -45.77 50
NA 12:00:00 TS 16.50 -46.00 50
NA 15:00:00 TS 16.59 -46.38 50
NA 18:00:00 TS 16.70 -46.80 50
NA 21:00:00 TS 16.80 -47.15 50
NA 1884-10-01 00:00:00 TS 16.90 -47.50 50
NA 03:00:00 TS 17.00 -47.90 50
NA 06:00:00 TS 17.10 -48.30 50
NA 09:00:00 TS 17.19 -48.64 50
NA 12:00:00 TS 17.30 -49.00 50
NA 15:00:00 TS 17.44 -49.48 47
NA 18:00:00 TS 17.60 -50.00 45
NA 21:00:00 TS 17.75 -50.50 42
NA 1884-10-02 00:00:00 TS 17.90 -51.00 40
NA 03:00:00 TS 18.05 -51.50 37
NA 06:00:00 TS 18.20 -52.00 35
NA 09:00:00 TS 18.36 -52.57 35
NA 12:00:00 TS 18.50 -53.00 35
NA 15:00:00 TS 18.61 -53.12 35
NA 18:00:00 TS 18.70 -53.10 35
NA 21:00:00 TS 18.80 -53.15 35
NA 1884-10-03 00:00:00 TS 18.90 -53.20 35
NA 03:00:00 TS 19.00 -53.25 35
NA 06:00:00 TS 19.10 -53.30 35
NA 09:00:00 TS 19.20 -53.36 35
NA 12:00:00 TS 19.30 -53.40 35
NA 15:00:00 TS 19.40 -53.37 35
NA 18:00:00 TS 19.50 -53.30 35
NA 21:00:00 TS 19.60 -53.26 35
NA 1884-10-04 00:00:00 TS 19.70 -53.20 35
NA 03:00:00 TS 19.81 -53.07 35
NA 06:00:00 TS 19.90 -52.90 35
NA 09:00:00 TS 19.94 -52.71 35
NA 12:00:00 TS 20.00 -52.50 35
NA 15:00:00 TS 20.14 -52.29 35
NA 18:00:00 TS 20.30 -52.10 35
NA 21:00:00 TS 20.40 -51.95 35
NA 1884-10-05 00:00:00 TS 20.50 -51.80 35
NA 03:00:00 TS 20.65 -51.61 35
NA 06:00:00 TS 20.80 -51.40 35
NA 09:00:00 TS 20.88 -51.23 35
NA 12:00:00 TS 21.00 -51.00 35
NA 15:00:00 TS 21.23 -50.64 35
NA 18:00:00 TS 21.50 -50.20 35
NA 21:00:00 TS 21.75 -49.76 35
NA 1884-10-06 00:00:00 TS 22.00 -49.30 35
NA 03:00:00 TS 22.25 -48.85 35
NA 06:00:00 TS 22.50 -48.40 35
NA 09:00:00 TS 22.74 -47.93 35
NA 12:00:00 TS 23.00 -47.50 35
NA 15:00:00 TS 23.34 -47.18 35
NA 18:00:00 TS 23.70 -46.90 35
NA 21:00:00 TS 24.01 -46.61 35
NA 1884-10-07 00:00:00 TS 24.30 -46.30 35
NA 03:00:00 TS 24.60 -45.95 35
NA 06:00:00 TS 24.90 -45.60 35
NA 09:00:00 TS 25.18 -45.34 35
NA 12:00:00 TS 25.50 -45.00 35
NA 15:00:00 TS 25.93 -44.40 35
NA 18:00:00 TS 26.40 -43.70 35
NA 21:00:00 TS 26.85 -43.10 35
NA 1884-10-08 00:00:00 TS 27.30 -42.50 35
NA 03:00:00 TS 27.76 -41.85 35
NA 06:00:00 TS 28.20 -41.20 35
NA 09:00:00 TS 28.65 -40.53 35
NA 12:00:00 TS 29.00 -40.00 35
NA 15:00:00 TS 29.19 -39.77 35
NA 18:00:00 TS 29.30 -39.70 35
NA 21:00:00 TS 29.40 -39.60 35
NA 1884-10-09 00:00:00 TS 29.50 -39.50 35
NA 03:00:00 TS 29.65 -39.35 35
NA 06:00:00 TS 29.80 -39.20 35
NA 09:00:00 TS 29.94 -39.09 35
NA 12:00:00 TS 30.00 -39.00 35
NA 15:00:00 TS 29.94 -38.89 35
NA 18:00:00 TS 29.80 -38.80 35
NA 21:00:00 TS 29.66 -38.74 35
NA 1884-10-10 00:00:00 TS 29.50 -38.70 35
NA 03:00:00 TS 29.34 -38.65 35
NA 06:00:00 TS 29.20 -38.60 35
NA 09:00:00 TS 29.05 -38.48 35
NA 12:00:00 TS 29.00 -38.50 35
NA 15:00:00 TS 29.16 -38.87 35
NA 18:00:00 TS 29.40 -39.40 35
NA 21:00:00 TS 29.55 -39.87 35
NA 1884-10-11 00:00:00 TS 29.80 -40.30 35
NA 03:00:00 TS 30.30 -40.62 35
NA 06:00:00 TS 30.90 -40.90 35
NA 09:00:00 TS 31.44 -41.24 35
NA 12:00:00 TS 32.00 -41.50 35
NA 15:00:00 TS 32.64 -41.55 35
NA 18:00:00 TS 33.30 -41.50 35
NA 21:00:00 TS 33.90 -41.50 35
NA 1884-10-12 00:00:00 TS 34.50 -41.50 35
NA 03:00:00 TS 35.15 -41.50 35
NA 06:00:00 TS 35.80 -41.50 35
NA 09:00:00 TS 36.39 -41.52 35
NA 12:00:00 ET 37.00 -41.50 35
NA 15:00:00 ET 37.69 -41.37 35
NA 18:00:00 ET 38.40 -41.20 35
NA 21:00:00 ET 39.10 -41.11 35
NA 1884-10-13 00:00:00 ET 39.80 -41.00 35
NA 03:00:00 ET 40.51 -40.77 37
NA 06:00:00 ET 41.20 -40.50 40
NA 09:00:00 ET 41.86 -40.24 42
NA 12:00:00 ET 42.50 -40.00 45

Source Information

Agency Information
USA
TOKYO
CMA
HKO
NEWDELHI
REUNION
BOM
NADI
WELLINGTON
DS824
TD9636
TD9635
NEUMANN
MLC

All available IBTrACS Data

SEASON BASIN SUBBASIN ISO_TIME_________ NATURE LAT LON DIST2LAND LANDFALL IFLAG USA SSHS MLC LAT MLC LON MLC CLASS MLC WIND STORM SPEED STORM DIR
Year degrees north degrees east km km 1 degrees north degrees east kts kts degrees
1884 NA NA 1884-09-27 12:00:00 TS 15.00 -42.50 1538 1538 _____________O -1 15.00 -42.50 TS 35 3 320
1884 NA NA 15:00:00 TS 15.10 -42.59 1539 1539 _____________P -1 15.10 -42.59 TS 37 3 316
1884 NA NA 18:00:00 TS 15.20 -42.70 1541 1535 _____________O -1 15.20 -42.70 TS 40 3 308
1884 NA NA 21:00:00 TS 15.30 -42.85 1543 1537 _____________P -1 15.30 -42.85 TS 42 4 305
1884 NA NA 1884-09-28 00:00:00 TS 15.40 -43.00 1539 1533 _____________O -1 15.40 -43.00 TS 45 3 310
1884 NA NA 03:00:00 TS 15.50 -43.10 1542 1542 _____________P -1 15.50 -43.10 TS 47 3 316
1884 NA NA 06:00:00 TS 15.60 -43.20 1545 1538 _____________O -1 15.60 -43.20 TS 50 3 311
1884 NA NA 09:00:00 TS 15.71 -43.34 1547 1541 _____________P -1 15.71 -43.34 TS 50 4 305
1884 NA NA 12:00:00 TS 15.80 -43.50 1544 1538 _____________O -1 15.80 -43.50 TS 50 3 297
1884 NA NA 15:00:00 TS 15.87 -43.66 1542 1536 _____________P -1 15.87 -43.66 TS 50 3 289
1884 NA NA 18:00:00 TS 15.90 -43.80 1536 1529 _____________O -1 15.90 -43.80 TS 50 2 278
1884 NA NA 21:00:00 TS 15.90 -43.90 1529 1522 _____________P -1 15.90 -43.90 TS 50 2 270
1884 NA NA 1884-09-29 00:00:00 TS 15.90 -44.00 1522 1515 _____________O -1 15.90 -44.00 TS 50 2 282
1884 NA NA 03:00:00 TS 15.95 -44.15 1524 1511 _____________P -1 15.95 -44.15 TS 50 3 289
1884 NA NA 06:00:00 TS 16.00 -44.30 1511 1504 _____________O -1 16.00 -44.30 TS 50 2 282
1884 NA NA 09:00:00 TS 16.00 -44.40 1504 1498 _____________P -1 16.00 -44.40 TS 50 2 270
1884 NA NA 12:00:00 TS 16.00 -44.50 1498 1492 _____________O -1 16.00 -44.50 TS 50 2 281
1884 NA NA 15:00:00 TS 16.04 -44.63 1492 1485 _____________P -1 16.04 -44.63 TS 50 3 289
1884 NA NA 18:00:00 TS 16.10 -44.80 1488 1476 _____________O -1 16.10 -44.80 TS 50 4 286
1884 NA NA 21:00:00 TS 16.14 -44.99 1476 1473 _____________P -1 16.14 -44.99 TS 50 4 285
1884 NA NA 1884-09-30 00:00:00 TS 16.20 -45.20 1473 1467 _____________O -1 16.20 -45.20 TS 50 4 292
1884 NA NA 03:00:00 TS 16.30 -45.40 1470 1464 _____________P -1 16.30 -45.40 TS 50 4 297
1884 NA NA 06:00:00 TS 16.40 -45.60 1468 1457 _____________O -1 16.40 -45.60 TS 50 4 293
1884 NA NA 09:00:00 TS 16.45 -45.77 1457 1456 _____________P -1 16.45 -45.77 TS 50 4 285
1884 NA NA 12:00:00 TS 16.50 -46.00 1456 1444 _____________O -1 16.50 -46.00 TS 50 6 284
1884 NA NA 15:00:00 TS 16.59 -46.38 1444 1434 _____________P -1 16.59 -46.38 TS 50 8 285
1884 NA NA 18:00:00 TS 16.70 -46.80 1434 1424 _____________O -1 16.70 -46.80 TS 50 8 286
1884 NA NA 21:00:00 TS 16.80 -47.15 1425 1420 _____________P -1 16.80 -47.15 TS 50 7 287
1884 NA NA 1884-10-01 00:00:00 TS 16.90 -47.50 1421 1413 _____________O -1 16.90 -47.50 TS 50 7 286
1884 NA NA 03:00:00 TS 17.00 -47.90 1414 1406 _____________P -1 17.00 -47.90 TS 50 8 285
1884 NA NA 06:00:00 TS 17.10 -48.30 1409 1399 _____________O -1 17.10 -48.30 TS 50 7 285
1884 NA NA 09:00:00 TS 17.19 -48.64 1404 1395 _____________P -1 17.19 -48.64 TS 50 7 287
1884 NA NA 12:00:00 TS 17.30 -49.00 1396 1389 _____________O -1 17.30 -49.00 TS 50 8 287
1884 NA NA 15:00:00 TS 17.44 -49.48 1385 1384 _____________P -1 17.44 -49.48 TS 47 10 287
1884 NA NA 18:00:00 TS 17.60 -50.00 1387 1376 _____________O -1 17.60 -50.00 TS 45 10 288
1884 NA NA 21:00:00 TS 17.75 -50.50 1376 1345 _____________P -1 17.75 -50.50 TS 42 10 287
1884 NA NA 1884-10-02 00:00:00 TS 17.90 -51.00 1345 1309 _____________O -1 17.90 -51.00 TS 40 10 288
1884 NA NA 03:00:00 TS 18.05 -51.50 1309 1281 _____________P -1 18.05 -51.50 TS 37 10 288
1884 NA NA 06:00:00 TS 18.20 -52.00 1281 1249 _____________O -1 18.20 -52.00 TS 35 11 287
1884 NA NA 09:00:00 TS 18.36 -52.57 1248 1225 _____________P -1 18.36 -52.57 TS 35 10 288
1884 NA NA 12:00:00 TS 18.50 -53.00 1225 1218 _____________O -1 18.50 -53.00 TS 35 6 296
1884 NA NA 15:00:00 TS 18.61 -53.12 1226 1226 _____________P -1 18.61 -53.12 TS 35 2 333
1884 NA NA 18:00:00 TS 18.70 -53.10 1234 1234 _____________O -1 18.70 -53.10 TS 35 2 347
1884 NA NA 21:00:00 TS 18.80 -53.15 1234 1234 _____________P -1 18.80 -53.15 TS 35 2 333
1884 NA NA 1884-10-03 00:00:00 TS 18.90 -53.20 1242 1242 _____________O -1 18.90 -53.20 TS 35 2 333
1884 NA NA 03:00:00 TS 19.00 -53.25 1251 1243 _____________P -1 19.00 -53.25 TS 35 2 333
1884 NA NA 06:00:00 TS 19.10 -53.30 1252 1252 _____________O -1 19.10 -53.30 TS 35 2 330
1884 NA NA 09:00:00 TS 19.20 -53.36 1253 1253 _____________P -1 19.20 -53.36 TS 35 2 333
1884 NA NA 12:00:00 TS 19.30 -53.40 1261 1261 _____________O -1 19.30 -53.40 TS 35 2 352
1884 NA NA 15:00:00 TS 19.40 -53.37 1270 1270 _____________P -1 19.40 -53.37 TS 35 2 27
1884 NA NA 18:00:00 TS 19.50 -53.30 1285 1285 _____________O -1 19.50 -53.30 TS 35 2 27
1884 NA NA 21:00:00 TS 19.60 -53.26 1293 1293 _____________P -1 19.60 -53.26 TS 35 2 27
1884 NA NA 1884-10-04 00:00:00 TS 19.70 -53.20 1309 1309 _____________O -1 19.70 -53.20 TS 35 3 41
1884 NA NA 03:00:00 TS 19.81 -53.07 1322 1322 _____________P -1 19.81 -53.07 TS 35 3 55
1884 NA NA 06:00:00 TS 19.90 -52.90 1344 1344 _____________O -1 19.90 -52.90 TS 35 4 69
1884 NA NA 09:00:00 TS 19.94 -52.71 1360 1360 _____________P -1 19.94 -52.71 TS 35 4 75
1884 NA NA 12:00:00 TS 20.00 -52.50 1382 1382 _____________O -1 20.00 -52.50 TS 35 4 63
1884 NA NA 15:00:00 TS 20.14 -52.29 1405 1405 _____________P -1 20.14 -52.29 TS 35 5 51
1884 NA NA 18:00:00 TS 20.30 -52.10 1431 1431 _____________O -1 20.30 -52.10 TS 35 4 51
1884 NA NA 21:00:00 TS 20.40 -51.95 1453 1453 _____________P -1 20.40 -51.95 TS 35 3 55
1884 NA NA 1884-10-05 00:00:00 TS 20.50 -51.80 1465 1465 _____________O -1 20.50 -51.80 TS 35 4 52
1884 NA NA 03:00:00 TS 20.65 -51.61 1488 1487 _____________P -1 20.65 -51.61 TS 35 5 51
1884 NA NA 06:00:00 TS 20.80 -51.40 1510 1510 _____________O -1 20.80 -51.40 TS 35 4 56
1884 NA NA 09:00:00 TS 20.88 -51.23 1533 1533 _____________P -1 20.88 -51.23 TS 35 4 62
1884 NA NA 12:00:00 TS 21.00 -51.00 1555 1555 _____________O -1 21.00 -51.00 TS 35 7 58
1884 NA NA 15:00:00 TS 21.23 -50.64 1599 1599 _____________P -1 21.23 -50.64 TS 35 9 56
1884 NA NA 18:00:00 TS 21.50 -50.20 1645 1645 _____________O -1 21.50 -50.20 TS 35 10 57
1884 NA NA 21:00:00 TS 21.75 -49.76 1690 1690 _____________P -1 21.75 -49.76 TS 35 10 59
1884 NA NA 1884-10-06 00:00:00 TS 22.00 -49.30 1746 1746 _____________O -1 22.00 -49.30 TS 35 10 59
1884 NA NA 03:00:00 TS 22.25 -48.85 1801 1801 _____________P -1 22.25 -48.85 TS 35 10 59
1884 NA NA 06:00:00 TS 22.50 -48.40 1848 1848 _____________O -1 22.50 -48.40 TS 35 10 60
1884 NA NA 09:00:00 TS 22.74 -47.93 1902 1902 _____________P -1 22.74 -47.93 TS 35 10 59
1884 NA NA 12:00:00 TS 23.00 -47.50 1949 1949 _____________O -1 23.00 -47.50 TS 35 9 49
1884 NA NA 15:00:00 TS 23.34 -47.18 1986 1986 _____________P -1 23.34 -47.18 TS 35 9 38
1884 NA NA 18:00:00 TS 23.70 -46.90 2026 2026 _____________O -1 23.70 -46.90 TS 35 8 38
1884 NA NA 21:00:00 TS 24.01 -46.61 2064 2064 _____________P -1 24.01 -46.61 TS 35 8 42
1884 NA NA 1884-10-07 00:00:00 TS 24.30 -46.30 2101 2101 _____________O -1 24.30 -46.30 TS 35 8 45
1884 NA NA 03:00:00 TS 24.60 -45.95 2149 2149 _____________P -1 24.60 -45.95 TS 35 9 47
1884 NA NA 06:00:00 TS 24.90 -45.60 2187 2187 _____________O -1 24.90 -45.60 TS 35 8 44
1884 NA NA 09:00:00 TS 25.18 -45.34 2225 2225 _____________P -1 25.18 -45.34 TS 35 8 42
1884 NA NA 12:00:00 TS 25.50 -45.00 2263 2263 _____________O -1 25.50 -45.00 TS 35 11 49
1884 NA NA 15:00:00 TS 25.93 -44.40 2334 2334 _____________P -1 25.93 -44.40 TS 35 15 52
1884 NA NA 18:00:00 TS 26.40 -43.70 2400 2373 _____________O -1 26.40 -43.70 TS 35 15 52
1884 NA NA 21:00:00 TS 26.85 -43.10 2376 2344 _____________P -1 26.85 -43.10 TS 35 14 50
1884 NA NA 1884-10-08 00:00:00 TS 27.30 -42.50 2344 2320 _____________O -1 27.30 -42.50 TS 35 14 51
1884 NA NA 03:00:00 TS 27.76 -41.85 2317 2295 _____________P -1 27.76 -41.85 TS 35 15 52
1884 NA NA 06:00:00 TS 28.20 -41.20 2299 2279 _____________O -1 28.20 -41.20 TS 35 15 53
1884 NA NA 09:00:00 TS 28.65 -40.53 2287 2258 _____________P -1 28.65 -40.53 TS 35 13 53
1884 NA NA 12:00:00 TS 29.00 -40.00 2258 2238 _____________O -1 29.00 -40.00 TS 35 9 50
1884 NA NA 15:00:00 TS 29.19 -39.77 2238 2227 _____________P -1 29.19 -39.77 TS 35 4 41
1884 NA NA 18:00:00 TS 29.30 -39.70 2227 2217 _____________O -1 29.30 -39.70 TS 35 3 37
1884 NA NA 21:00:00 TS 29.40 -39.60 2217 2207 _____________P -1 29.40 -39.60 TS 35 3 41
1884 NA NA 1884-10-09 00:00:00 TS 29.50 -39.50 2207 2197 _____________O -1 29.50 -39.50 TS 35 3 41
1884 NA NA 03:00:00 TS 29.65 -39.35 2197 2177 _____________P -1 29.65 -39.35 TS 35 4 41
1884 NA NA 06:00:00 TS 29.80 -39.20 2177 2167 _____________O -1 29.80 -39.20 TS 35 4 38
1884 NA NA 09:00:00 TS 29.94 -39.09 2167 2158 _____________P -1 29.94 -39.09 TS 35 3 41
1884 NA NA 12:00:00 TS 30.00 -39.00 2158 2148 _____________O -1 30.00 -39.00 TS 35 2 90
1884 NA NA 15:00:00 TS 29.94 -38.89 2148 2138 _____________P -1 29.94 -38.89 TS 35 3 139
1884 NA NA 18:00:00 TS 29.80 -38.80 2139 2129 _____________O -1 29.80 -38.80 TS 35 3 155
1884 NA NA 21:00:00 TS 29.66 -38.74 2129 2129 _____________P -1 29.66 -38.74 TS 35 3 164
1884 NA NA 1884-10-10 00:00:00 TS 29.50 -38.70 2130 2130 _____________O -1 29.50 -38.70 TS 35 3 167
1884 NA NA 03:00:00 TS 29.34 -38.65 2121 2121 _____________P -1 29.34 -38.65 TS 35 3 164
1884 NA NA 06:00:00 TS 29.20 -38.60 2121 2112 _____________O -1 29.20 -38.60 TS 35 3 152
1884 NA NA 09:00:00 TS 29.05 -38.48 2113 2113 _____________P -1 29.05 -38.48 TS 35 2 155
1884 NA NA 12:00:00 TS 29.00 -38.50 2113 2113 _____________O -1 29.00 -38.50 TS 35 4 287
1884 NA NA 15:00:00 TS 29.16 -38.87 2150 2150 _____________P -1 29.16 -38.87 TS 35 9 297
1884 NA NA 18:00:00 TS 29.40 -39.40 2198 2198 _____________O -1 29.40 -39.40 TS 35 10 294
1884 NA NA 21:00:00 TS 29.55 -39.87 2223 2175 _____________P -1 29.55 -39.87 TS 35 9 297
1884 NA NA 1884-10-11 00:00:00 TS 29.80 -40.30 2175 2113 _____________O -1 29.80 -40.30 TS 35 10 319
1884 NA NA 03:00:00 TS 30.30 -40.62 2113 2040 _____________P -1 30.30 -40.62 TS 35 12 335
1884 NA NA 06:00:00 TS 30.90 -40.90 2040 1977 _____________O -1 30.90 -40.90 TS 35 13 335
1884 NA NA 09:00:00 TS 31.44 -41.24 1977 1905 _____________P -1 31.44 -41.24 TS 35 12 335
1884 NA NA 12:00:00 TS 32.00 -41.50 1905 1846 _____________O -1 32.00 -41.50 TS 35 12 348
1884 NA NA 15:00:00 TS 32.64 -41.55 1846 1778 _____________P -1 32.64 -41.55 TS 35 13 1
1884 NA NA 18:00:00 TS 33.30 -41.50 1778 1721 _____________O -1 33.30 -41.50 TS 35 13 1
1884 NA NA 21:00:00 TS 33.90 -41.50 1721 1664 _____________P -1 33.90 -41.50 TS 35 12 1
1884 NA NA 1884-10-12 00:00:00 TS 34.50 -41.50 1664 1608 _____________O -1 34.50 -41.50 TS 35 13 0
1884 NA NA 03:00:00 TS 35.15 -41.50 1599 1544 _____________P -1 35.15 -41.50 TS 35 13 1
1884 NA NA 06:00:00 TS 35.80 -41.50 1544 1490 _____________O -1 35.80 -41.50 TS 35 12 0
1884 NA NA 09:00:00 TS 36.39 -41.52 1490 1437 _____________P -1 36.39 -41.52 TS 35 12 1
1884 NA NA 12:00:00 ET 37.00 -41.50 1437 1391 _____________O -1 37.00 -41.50 EX 35 13 5
1884 NA NA 15:00:00 ET 37.69 -41.37 1382 1336 _____________P -1 37.69 -41.37 EX 35 14 10
1884 NA NA 18:00:00 ET 38.40 -41.20 1336 1286 _____________O -1 38.40 -41.20 EX 35 14 8
1884 NA NA 21:00:00 ET 39.10 -41.11 1286 1239 _____________P -1 39.10 -41.11 EX 35 14 6
1884 NA NA 1884-10-13 00:00:00 ET 39.80 -41.00 1239 1200 _____________O -1 39.80 -41.00 EX 35 14 11
1884 NA NA 03:00:00 ET 40.51 -40.77 1200 1172 _____________P -1 40.51 -40.77 EX 37 15 15
1884 NA NA 06:00:00 ET 41.20 -40.50 1172 1148 _____________O -1 41.20 -40.50 EX 40 14 16
1884 NA NA 09:00:00 ET 41.86 -40.24 1148 1126 _____________P -1 41.86 -40.24 EX 42 14 16
1884 NA NA 12:00:00 ET 42.50 -40.00 1128 _____________O -1 42.50 -40.00 EX 45 13 16